createdAt,value
2022-10-14T00:04:48.531Z,63.33
2022-10-14T00:14:50.464Z,62.65
2022-10-14T00:24:52.627Z,55.47
2022-10-14T00:35:04.209Z,52.58
2022-10-14T00:45:16.752Z,44.63
2022-10-14T00:55:19.400Z,42.55
2022-10-14T01:05:21.347Z,40.90
2022-10-14T01:16:04.055Z,43.22
2022-10-14T01:26:18.057Z,54.90
2022-10-14T01:36:49.469Z,53.63
2022-10-14T01:47:06.133Z,51.00
2022-10-14T01:57:59.697Z,46.58
2022-10-14T02:08:17.965Z,47.80
2022-10-14T02:19:03.449Z,46.80
2022-10-14T02:50:12.816Z,57.20
2022-10-14T03:00:18.109Z,56.53
2022-10-14T03:10:25.320Z,51.25
2022-10-14T03:20:27.434Z,52.28
2022-10-14T03:30:31.985Z,50.65
2022-10-14T03:40:40.282Z,53.00
2022-10-14T03:50:48.124Z,49.05
2022-10-14T04:00:52.589Z,52.60
2022-10-14T04:11:10.499Z,44.08
2022-10-14T04:21:15.068Z,48.13
2022-10-14T04:41:38.417Z,41.83
2022-10-14T04:51:40.680Z,41.67
2022-10-14T05:01:54.706Z,46.28
2022-10-14T05:11:57.134Z,34.50
2022-10-14T05:22:07.514Z,34.75
2022-10-14T05:32:14.992Z,36.75
2022-10-14T05:42:21.786Z,35.08
2022-10-14T05:52:28.680Z,37.70
2022-10-14T06:02:36.342Z,33.35
2022-10-14T06:24:10.088Z,45.70
2022-10-14T06:34:13.353Z,34.08
2022-10-14T06:44:15.208Z,38.53
2022-10-14T06:54:17.279Z,31.98
2022-10-14T07:04:31.181Z,30.38
2022-10-14T07:14:58.719Z,33.13
2022-10-14T07:25:07.528Z,32.90
2022-10-14T07:35:09.926Z,34.63
2022-10-14T07:45:12.649Z,33.20
2022-10-14T07:55:14.821Z,34.13
2022-10-14T08:05:38.672Z,27.60
2022-10-14T08:15:41.294Z,26.27
2022-10-14T08:25:43.973Z,25.65
2022-10-14T08:35:53.081Z,22.70
2022-10-14T08:46:04.545Z,22.30
2022-10-14T08:56:25.978Z,18.08
2022-10-14T09:06:30.502Z,21.20
2022-10-14T09:16:39.990Z,20.77
2022-10-14T09:26:44.459Z,18.60
2022-10-14T09:46:59.510Z,19.08
2022-10-14T09:57:38.057Z,20.08
2022-10-14T10:08:02.669Z,20.65
2022-10-14T10:18:19.100Z,20.33
2022-10-14T10:28:29.785Z,19.45
2022-10-14T10:38:46.232Z,18.58
2022-10-14T10:49:00.590Z,18.70
2022-10-14T10:59:14.107Z,19.27
2022-10-14T11:09:30.178Z,19.95
2022-10-14T11:20:04.655Z,18.73
2022-10-14T11:30:53.625Z,19.77
2022-10-14T11:41:20.305Z,17.88
2022-10-14T11:51:34.910Z,19.60
2022-10-14T12:01:44.158Z,19.67
2022-10-14T12:11:54.286Z,18.92
2022-10-14T12:22:16.592Z,16.83
2022-10-14T12:32:33.850Z,17.98
2022-10-14T12:42:59.821Z,16.83
2022-10-14T12:53:05.754Z,17.25
2022-10-14T13:03:23.413Z,17.65
2022-10-14T13:13:49.286Z,17.58
2022-10-14T13:23:51.838Z,17.55
2022-10-14T13:34:05.087Z,19.98
2022-10-14T13:44:06.961Z,18.30
2022-10-14T13:54:14.355Z,16.50
2022-10-14T14:04:26.273Z,20.30
2022-10-14T14:14:37.649Z,20.95
2022-10-14T14:24:39.491Z,17.58
2022-10-14T14:34:44.565Z,19.50
2022-10-14T14:44:46.501Z,19.02
2022-10-14T14:54:48.707Z,21.40
2022-10-14T15:05:08.909Z,23.35
2022-10-14T15:15:31.119Z,28.65
2022-10-14T15:37:13.589Z,18.98
2022-10-14T15:47:15.528Z,22.67
2022-10-14T15:57:19.528Z,22.13
2022-10-14T16:07:24.993Z,19.52
2022-10-14T16:17:27.110Z,20.48
2022-10-14T16:27:29.029Z,21.67
2022-10-14T16:37:30.934Z,23.90
2022-10-14T16:47:32.863Z,21.23
2022-10-14T16:57:34.682Z,20.80
2022-10-14T17:08:18.635Z,19.48
2022-10-14T17:18:25.683Z,19.58
2022-10-14T17:28:29.742Z,23.73
2022-10-14T17:38:32.066Z,57.53
2022-10-14T17:48:35.329Z,26.17
2022-10-14T17:58:37.715Z,29.05
2022-10-14T18:08:44.268Z,25.17
2022-10-14T18:18:46.175Z,31.25
2022-10-14T18:28:51.654Z,36.17
2022-10-14T18:38:55.883Z,35.47
2022-10-14T18:48:59.378Z,36.90
2022-10-14T18:59:06.258Z,29.75
2022-10-14T19:09:13.663Z,32.50
2022-10-14T19:19:24.599Z,34.47
2022-10-14T19:29:26.564Z,43.42
2022-10-14T19:39:31.747Z,51.78
2022-10-14T20:00:18.414Z,41.13
2022-10-14T20:10:29.289Z,38.13
2022-10-14T20:20:34.733Z,44.33
2022-10-14T20:30:39.530Z,45.30
2022-10-14T20:40:44.966Z,41.88
2022-10-14T20:50:46.997Z,40.05
2022-10-14T21:00:48.814Z,45.40
2022-10-14T21:11:09.226Z,43.38
2022-10-14T21:21:24.230Z,38.58
2022-10-14T21:31:50.653Z,36.50
2022-10-14T21:42:07.991Z,35.92
2022-10-14T21:52:10.618Z,35.70
2022-10-14T22:02:12.977Z,37.40
2022-10-14T22:12:15.182Z,30.92
2022-10-14T22:22:17.213Z,37.35
2022-10-14T22:32:19.135Z,38.47
2022-10-14T22:42:22.540Z,32.00
2022-10-14T22:52:24.818Z,32.58
2022-10-14T23:02:27.025Z,26.42
2022-10-14T23:12:35.307Z,29.67
2022-10-14T23:22:37.542Z,27.98
2022-10-14T23:32:39.969Z,31.38
2022-10-14T23:42:42.102Z,27.90
2022-10-14T23:52:44.192Z,29.63
